sensor_id;sensor_type;location;lat;lon;timestamp;temperature;humidity
29817;DHT22;16805;52.956;5.906;2023-12-28T07:05:46;9.70;99.90
29817;DHT22;16805;52.956;5.906;2023-12-28T07:08:24;9.70;99.90
29817;DHT22;16805;52.956;5.906;2023-12-28T07:11:20;9.70;99.90
29817;DHT22;16805;52.956;5.906;2023-12-28T07:14:30;9.70;99.90
29817;DHT22;16805;52.956;5.906;2023-12-28T07:17:32;9.70;99.90
29817;DHT22;16805;52.956;5.906;2023-12-28T07:20:31;9.60;99.90
29817;DHT22;16805;52.956;5.906;2023-12-28T07:23:05;9.60;99.90
29817;DHT22;16805;52.956;5.906;2023-12-28T07:26:06;9.60;99.90
29817;DHT22;16805;52.956;5.906;2023-12-28T07:29:08;9.60;99.90
29817;DHT22;16805;52.956;5.906;2023-12-28T07:32:10;9.60;99.90
29817;DHT22;16805;52.956;5.906;2023-12-28T07:35:02;9.60;99.90
29817;DHT22;16805;52.956;5.906;2023-12-28T07:38:04;9.60;99.90
29817;DHT22;16805;52.956;5.906;2023-12-28T07:41:14;9.70;99.90
29817;DHT22;16805;52.956;5.906;2023-12-28T07:44:36;9.60;99.90
29817;DHT22;16805;52.956;5.906;2023-12-28T07:47:50;9.70;99.90
29817;DHT22;16805;52.956;5.906;2023-12-28T07:50:19;9.70;99.90
29817;DHT22;16805;52.956;5.906;2023-12-28T07:56:39;9.70;99.90
29817;DHT22;16805;52.956;5.906;2023-12-28T08:02:33;9.70;99.90
29817;DHT22;16805;52.956;5.906;2023-12-28T08:05:37;9.70;99.90
29817;DHT22;16805;52.956;5.906;2023-12-28T08:27:08;9.80;99.90
29817;DHT22;16805;52.956;5.906;2023-12-28T10:31:27;10.20;99.90
29817;DHT22;16805;52.956;5.906;2023-12-28T10:34:06;10.20;99.90
29817;DHT22;16805;52.956;5.906;2023-12-28T10:36:32;10.30;99.90
29817;DHT22;16805;52.956;5.906;2023-12-28T10:39:01;10.30;99.90
29817;DHT22;16805;52.956;5.906;2023-12-28T10:41:30;10.30;99.90
29817;DHT22;16805;52.956;5.906;2023-12-28T10:44:03;10.30;99.90
29817;DHT22;16805;52.956;5.906;2023-12-28T10:46:31;10.30;99.90
29817;DHT22;16805;52.956;5.906;2023-12-28T10:49:09;10.30;99.90
29817;DHT22;16805;52.956;5.906;2023-12-28T10:51:36;10.30;99.90
29817;DHT22;16805;52.956;5.906;2023-12-28T10:57:26;10.20;99.90
29817;DHT22;16805;52.956;5.906;2023-12-28T11:00:04;10.20;99.90
29817;DHT22;16805;52.956;5.906;2023-12-28T11:02:39;10.30;99.90
29817;DHT22;16805;52.956;5.906;2023-12-28T11:05:07;10.20;99.90
29817;DHT22;16805;52.956;5.906;2023-12-28T11:07:33;10.20;99.90
29817;DHT22;16805;52.956;5.906;2023-12-28T11:10:02;10.20;99.90
29817;DHT22;16805;52.956;5.906;2023-12-28T11:12:30;10.20;99.90
29817;DHT22;16805;52.956;5.906;2023-12-28T11:14:57;10.10;99.90
29817;DHT22;16805;52.956;5.906;2023-12-28T11:17:23;10.10;99.90
29817;DHT22;16805;52.956;5.906;2023-12-28T11:19:53;10.10;99.90
29817;DHT22;16805;52.956;5.906;2023-12-28T11:22:21;10.10;99.90
29817;DHT22;16805;52.956;5.906;2023-12-28T11:24:47;10.10;99.90
29817;DHT22;16805;52.956;5.906;2023-12-28T11:27:13;10.10;99.90
29817;DHT22;16805;52.956;5.906;2023-12-28T11:29:41;10.20;99.90
29817;DHT22;16805;52.956;5.906;2023-12-28T11:32:08;10.20;99.90
29817;DHT22;16805;52.956;5.906;2023-12-28T11:34:56;10.20;99.90
29817;DHT22;16805;52.956;5.906;2023-12-28T11:37:22;10.20;99.90
29817;DHT22;16805;52.956;5.906;2023-12-28T11:39:48;10.20;99.90
29817;DHT22;16805;52.956;5.906;2023-12-28T11:42:20;10.20;99.90
29817;DHT22;16805;52.956;5.906;2023-12-28T11:44:46;10.30;99.90
29817;DHT22;16805;52.956;5.906;2023-12-28T11:47:16;10.30;99.90
29817;DHT22;16805;52.956;5.906;2023-12-28T11:49:43;10.30;99.90
29817;DHT22;16805;52.956;5.906;2023-12-28T11:52:41;10.30;99.90
29817;DHT22;16805;52.956;5.906;2023-12-28T11:55:21;10.30;99.90
29817;DHT22;16805;52.956;5.906;2023-12-28T11:57:48;10.30;99.90
29817;DHT22;16805;52.956;5.906;2023-12-28T12:00:13;10.30;99.90
29817;DHT22;16805;52.956;5.906;2023-12-28T12:02:44;10.30;99.90
29817;DHT22;16805;52.956;5.906;2023-12-28T12:05:12;10.30;99.90
29817;DHT22;16805;52.956;5.906;2023-12-28T12:07:42;10.30;99.90
29817;DHT22;16805;52.956;5.906;2023-12-28T12:10:15;10.40;99.90
29817;DHT22;16805;52.956;5.906;2023-12-28T12:12:41;10.30;99.90
29817;DHT22;16805;52.956;5.906;2023-12-28T12:15:08;10.30;99.90
29817;DHT22;16805;52.956;5.906;2023-12-28T12:17:34;10.30;99.90
29817;DHT22;16805;52.956;5.906;2023-12-28T12:19:59;10.30;99.90
29817;DHT22;16805;52.956;5.906;2023-12-28T12:22:27;10.30;99.90
29817;DHT22;16805;52.956;5.906;2023-12-28T12:24:53;10.30;99.90
29817;DHT22;16805;52.956;5.906;2023-12-28T12:27:21;10.30;99.90
29817;DHT22;16805;52.956;5.906;2023-12-28T12:29:53;10.30;99.90
29817;DHT22;16805;52.956;5.906;2023-12-28T12:32:19;10.30;99.90
29817;DHT22;16805;52.956;5.906;2023-12-28T12:34:45;10.30;99.90
29817;DHT22;16805;52.956;5.906;2023-12-28T12:37:10;10.40;99.90
29817;DHT22;16805;52.956;5.906;2023-12-28T12:42:58;10.30;99.90
29817;DHT22;16805;52.956;5.906;2023-12-28T12:45:25;10.30;99.90
29817;DHT22;16805;52.956;5.906;2023-12-28T12:47:51;10.30;99.90
29817;DHT22;16805;52.956;5.906;2023-12-28T12:50:17;10.30;99.90
29817;DHT22;16805;52.956;5.906;2023-12-28T12:52:43;10.40;99.90
29817;DHT22;16805;52.956;5.906;2023-12-28T12:55:11;10.40;99.90
29817;DHT22;16805;52.956;5.906;2023-12-28T12:57:38;10.30;99.90
29817;DHT22;16805;52.956;5.906;2023-12-28T13:00:04;10.30;99.90
29817;DHT22;16805;52.956;5.906;2023-12-28T13:02:33;10.30;99.90
29817;DHT22;16805;52.956;5.906;2023-12-28T13:04:59;10.30;99.90
29817;DHT22;16805;52.956;5.906;2023-12-28T13:07:25;10.40;99.90
29817;DHT22;16805;52.956;5.906;2023-12-28T13:09:51;10.30;99.90
29817;DHT22;16805;52.956;5.906;2023-12-28T13:12:17;10.30;99.90
29817;DHT22;16805;52.956;5.906;2023-12-28T13:14:45;10.40;99.90
29817;DHT22;16805;52.956;5.906;2023-12-28T13:17:11;10.30;99.90
29817;DHT22;16805;52.956;5.906;2023-12-28T13:19:37;10.30;99.90
29817;DHT22;16805;52.956;5.906;2023-12-28T13:22:03;10.30;99.90
29817;DHT22;16805;52.956;5.906;2023-12-28T13:24:30;10.40;99.90
29817;DHT22;16805;52.956;5.906;2023-12-28T13:26:56;10.40;99.90
29817;DHT22;16805;52.956;5.906;2023-12-28T13:29:22;10.30;99.90
29817;DHT22;16805;52.956;5.906;2023-12-28T13:31:49;10.30;99.90
29817;DHT22;16805;52.956;5.906;2023-12-28T13:34:16;10.30;99.90
29817;DHT22;16805;52.956;5.906;2023-12-28T13:36:43;10.30;99.90
29817;DHT22;16805;52.956;5.906;2023-12-28T13:39:16;10.30;99.90
29817;DHT22;16805;52.956;5.906;2023-12-28T13:41:42;10.30;99.90
29817;DHT22;16805;52.956;5.906;2023-12-28T13:44:08;10.30;99.90
29817;DHT22;16805;52.956;5.906;2023-12-28T13:46:36;10.30;99.90
29817;DHT22;16805;52.956;5.906;2023-12-28T13:49:01;10.30;99.90
29817;DHT22;16805;52.956;5.906;2023-12-28T13:51:32;10.30;99.90
29817;DHT22;16805;52.956;5.906;2023-12-28T13:53:57;10.30;99.90
29817;DHT22;16805;52.956;5.906;2023-12-28T13:56:23;10.30;99.90
29817;DHT22;16805;52.956;5.906;2023-12-28T13:58:49;10.30;99.90
29817;DHT22;16805;52.956;5.906;2023-12-28T14:01:14;10.30;99.90
29817;DHT22;16805;52.956;5.906;2023-12-28T14:03:40;10.30;99.90
29817;DHT22;16805;52.956;5.906;2023-12-28T14:06:06;10.30;99.90
29817;DHT22;16805;52.956;5.906;2023-12-28T14:08:32;10.30;99.90
29817;DHT22;16805;52.956;5.906;2023-12-28T14:10:58;10.20;99.90
29817;DHT22;16805;52.956;5.906;2023-12-28T14:13:23;10.20;99.90
29817;DHT22;16805;52.956;5.906;2023-12-28T14:15:49;10.10;99.90
29817;DHT22;16805;52.956;5.906;2023-12-28T14:18:18;10.10;99.90
29817;DHT22;16805;52.956;5.906;2023-12-28T14:20:45;10.00;99.90
29817;DHT22;16805;52.956;5.906;2023-12-28T14:23:17;10.00;99.90
29817;DHT22;16805;52.956;5.906;2023-12-28T14:25:44;10.00;99.90
29817;DHT22;16805;52.956;5.906;2023-12-28T14:28:13;9.90;99.90
29817;DHT22;16805;52.956;5.906;2023-12-28T14:30:45;9.90;99.90
29817;DHT22;16805;52.956;5.906;2023-12-28T14:33:11;9.90;99.90
29817;DHT22;16805;52.956;5.906;2023-12-28T14:35:37;9.80;99.90
29817;DHT22;16805;52.956;5.906;2023-12-28T14:38:04;9.90;99.90
29817;DHT22;16805;52.956;5.906;2023-12-28T14:40:31;9.80;99.90
29817;DHT22;16805;52.956;5.906;2023-12-28T14:42:56;9.80;99.90
29817;DHT22;16805;52.956;5.906;2023-12-28T14:45:22;9.80;99.90
29817;DHT22;16805;52.956;5.906;2023-12-28T14:47:47;9.80;99.90
29817;DHT22;16805;52.956;5.906;2023-12-28T14:50:14;9.80;99.90
29817;DHT22;16805;52.956;5.906;2023-12-28T14:52:40;9.80;99.90
29817;DHT22;16805;52.956;5.906;2023-12-28T14:55:08;9.80;99.90
29817;DHT22;16805;52.956;5.906;2023-12-28T14:57:34;9.80;99.90
29817;DHT22;16805;52.956;5.906;2023-12-28T15:00:01;9.80;99.90
29817;DHT22;16805;52.956;5.906;2023-12-28T15:02:27;9.80;99.90
29817;DHT22;16805;52.956;5.906;2023-12-28T15:04:52;9.80;99.90
29817;DHT22;16805;52.956;5.906;2023-12-28T15:07:18;9.80;99.90
29817;DHT22;16805;52.956;5.906;2023-12-28T15:09:44;9.80;99.90
29817;DHT22;16805;52.956;5.906;2023-12-28T15:12:10;9.80;99.90
29817;DHT22;16805;52.956;5.906;2023-12-28T15:14:36;9.80;99.90
29817;DHT22;16805;52.956;5.906;2023-12-28T15:17:02;9.80;99.90
29817;DHT22;16805;52.956;5.906;2023-12-28T15:19:30;9.90;99.90
29817;DHT22;16805;52.956;5.906;2023-12-28T15:21:56;9.80;99.90
29817;DHT22;16805;52.956;5.906;2023-12-28T15:24:22;9.80;99.90
29817;DHT22;16805;52.956;5.906;2023-12-28T15:26:47;9.90;99.90
29817;DHT22;16805;52.956;5.906;2023-12-28T15:29:13;9.90;99.90
29817;DHT22;16805;52.956;5.906;2023-12-28T15:31:40;9.90;99.90
29817;DHT22;16805;52.956;5.906;2023-12-28T15:34:06;9.80;99.90
29817;DHT22;16805;52.956;5.906;2023-12-28T15:36:32;9.90;99.90
29817;DHT22;16805;52.956;5.906;2023-12-28T15:38:57;9.90;99.90
29817;DHT22;16805;52.956;5.906;2023-12-28T15:41:23;9.90;99.90
29817;DHT22;16805;52.956;5.906;2023-12-28T15:43:48;9.90;99.90
29817;DHT22;16805;52.956;5.906;2023-12-28T15:46:14;9.90;99.90
29817;DHT22;16805;52.956;5.906;2023-12-28T15:48:40;9.90;99.90
29817;DHT22;16805;52.956;5.906;2023-12-28T15:51:07;9.90;99.90
29817;DHT22;16805;52.956;5.906;2023-12-28T15:53:33;9.90;99.90
29817;DHT22;16805;52.956;5.906;2023-12-28T15:55:58;9.90;99.90
29817;DHT22;16805;52.956;5.906;2023-12-28T15:58:24;9.90;99.90
29817;DHT22;16805;52.956;5.906;2023-12-28T16:00:50;9.90;99.90
29817;DHT22;16805;52.956;5.906;2023-12-28T16:03:16;9.90;99.90
29817;DHT22;16805;52.956;5.906;2023-12-28T16:05:44;9.90;99.90
29817;DHT22;16805;52.956;5.906;2023-12-28T16:08:10;9.90;99.90
29817;DHT22;16805;52.956;5.906;2023-12-28T16:10:36;9.90;99.90
29817;DHT22;16805;52.956;5.906;2023-12-28T16:13:01;9.90;99.90
29817;DHT22;16805;52.956;5.906;2023-12-28T16:15:27;9.90;99.90
29817;DHT22;16805;52.956;5.906;2023-12-28T16:17:54;9.90;99.90
29817;DHT22;16805;52.956;5.906;2023-12-28T16:20:26;9.90;99.90
29817;DHT22;16805;52.956;5.906;2023-12-28T16:22:52;9.90;99.90
29817;DHT22;16805;52.956;5.906;2023-12-28T16:25:17;9.90;99.90
29817;DHT22;16805;52.956;5.906;2023-12-28T16:27:43;9.90;99.90
29817;DHT22;16805;52.956;5.906;2023-12-28T16:30:09;9.90;99.90
29817;DHT22;16805;52.956;5.906;2023-12-28T16:32:34;10.00;99.90
29817;DHT22;16805;52.956;5.906;2023-12-28T16:35:00;10.00;99.90
29817;DHT22;16805;52.956;5.906;2023-12-28T16:37:26;9.90;99.90
29817;DHT22;16805;52.956;5.906;2023-12-28T16:39:51;9.90;99.90
29817;DHT22;16805;52.956;5.906;2023-12-28T16:42:17;9.90;99.90
29817;DHT22;16805;52.956;5.906;2023-12-28T16:44:44;10.00;99.90
29817;DHT22;16805;52.956;5.906;2023-12-28T16:47:10;10.00;99.90
29817;DHT22;16805;52.956;5.906;2023-12-28T16:49:36;10.00;99.90
29817;DHT22;16805;52.956;5.906;2023-12-28T16:52:02;10.00;99.90
29817;DHT22;16805;52.956;5.906;2023-12-28T16:54:28;10.00;99.90
29817;DHT22;16805;52.956;5.906;2023-12-28T16:56:53;10.00;99.90
29817;DHT22;16805;52.956;5.906;2023-12-28T16:59:19;10.00;99.90
29817;DHT22;16805;52.956;5.906;2023-12-28T17:01:44;10.00;99.90
29817;DHT22;16805;52.956;5.906;2023-12-28T17:04:10;10.00;99.90
29817;DHT22;16805;52.956;5.906;2023-12-28T17:06:37;10.00;99.90
29817;DHT22;16805;52.956;5.906;2023-12-28T17:09:03;10.00;99.90
29817;DHT22;16805;52.956;5.906;2023-12-28T17:11:33;10.10;99.90
29817;DHT22;16805;52.956;5.906;2023-12-28T17:13:59;10.10;99.90
29817;DHT22;16805;52.956;5.906;2023-12-28T17:16:25;10.10;99.90
29817;DHT22;16805;52.956;5.906;2023-12-28T17:18:51;10.10;99.90
29817;DHT22;16805;52.956;5.906;2023-12-28T17:21:20;10.10;99.90
29817;DHT22;16805;52.956;5.906;2023-12-28T17:23:51;10.10;99.90
29817;DHT22;16805;52.956;5.906;2023-12-28T17:26:33;10.10;99.90
29817;DHT22;16805;52.956;5.906;2023-12-28T17:31:27;10.20;99.90
29817;DHT22;16805;52.956;5.906;2023-12-28T17:33:55;10.20;99.90
29817;DHT22;16805;52.956;5.906;2023-12-28T17:36:20;10.20;99.90
29817;DHT22;16805;52.956;5.906;2023-12-28T17:38:46;10.20;99.90
29817;DHT22;16805;52.956;5.906;2023-12-28T17:41:15;10.20;99.90
29817;DHT22;16805;52.956;5.906;2023-12-28T17:43:58;10.10;99.90
29817;DHT22;16805;52.956;5.906;2023-12-28T17:49:11;10.10;99.90
29817;DHT22;16805;52.956;5.906;2023-12-28T17:51:39;10.10;99.90
29817;DHT22;16805;52.956;5.906;2023-12-28T17:54:05;10.10;99.90
29817;DHT22;16805;52.956;5.906;2023-12-28T17:56:31;10.10;99.90
29817;DHT22;16805;52.956;5.906;2023-12-28T17:58:56;10.10;99.90
29817;DHT22;16805;52.956;5.906;2023-12-28T18:01:23;10.10;99.90
29817;DHT22;16805;52.956;5.906;2023-12-28T18:03:49;10.10;99.90
29817;DHT22;16805;52.956;5.906;2023-12-28T18:06:15;10.10;99.90
29817;DHT22;16805;52.956;5.906;2023-12-28T18:08:41;10.10;99.90
29817;DHT22;16805;52.956;5.906;2023-12-28T18:11:08;10.10;99.90
29817;DHT22;16805;52.956;5.906;2023-12-28T18:13:33;10.20;99.90
29817;DHT22;16805;52.956;5.906;2023-12-28T18:15:59;10.20;99.90
29817;DHT22;16805;52.956;5.906;2023-12-28T18:18:24;10.10;99.90
29817;DHT22;16805;52.956;5.906;2023-12-28T18:20:50;10.10;99.90
29817;DHT22;16805;52.956;5.906;2023-12-28T18:23:18;10.10;99.90
29817;DHT22;16805;52.956;5.906;2023-12-28T18:25:44;10.10;99.90
29817;DHT22;16805;52.956;5.906;2023-12-28T18:28:11;10.10;99.90
29817;DHT22;16805;52.956;5.906;2023-12-28T18:30:37;10.10;99.90
29817;DHT22;16805;52.956;5.906;2023-12-28T18:33:03;10.10;99.90
29817;DHT22;16805;52.956;5.906;2023-12-28T18:35:29;10.20;99.90
29817;DHT22;16805;52.956;5.906;2023-12-28T18:37:55;10.20;99.90
29817;DHT22;16805;52.956;5.906;2023-12-28T18:40:21;10.20;99.90
29817;DHT22;16805;52.956;5.906;2023-12-28T18:42:47;10.20;99.90
29817;DHT22;16805;52.956;5.906;2023-12-28T18:45:12;10.20;99.90
29817;DHT22;16805;52.956;5.906;2023-12-28T18:47:38;10.20;99.90
29817;DHT22;16805;52.956;5.906;2023-12-28T18:50:06;10.20;99.90
29817;DHT22;16805;52.956;5.906;2023-12-28T18:52:32;10.10;99.90
29817;DHT22;16805;52.956;5.906;2023-12-28T18:54:57;10.10;99.90
29817;DHT22;16805;52.956;5.906;2023-12-28T18:57:25;10.10;99.90
29817;DHT22;16805;52.956;5.906;2023-12-28T18:59:51;10.10;99.90
29817;DHT22;16805;52.956;5.906;2023-12-28T19:02:18;10.10;99.90
29817;DHT22;16805;52.956;5.906;2023-12-28T19:04:47;10.10;99.90
29817;DHT22;16805;52.956;5.906;2023-12-28T19:07:12;10.10;99.90
29817;DHT22;16805;52.956;5.906;2023-12-28T19:09:38;10.10;99.90
29817;DHT22;16805;52.956;5.906;2023-12-28T19:12:05;10.10;99.90
29817;DHT22;16805;52.956;5.906;2023-12-28T19:14:31;10.00;99.90
29817;DHT22;16805;52.956;5.906;2023-12-28T19:16:57;10.00;99.90
29817;DHT22;16805;52.956;5.906;2023-12-28T19:22:00;10.10;99.90
29817;DHT22;16805;52.956;5.906;2023-12-28T19:24:25;10.00;99.90
29817;DHT22;16805;52.956;5.906;2023-12-28T19:26:51;10.00;99.90
29817;DHT22;16805;52.956;5.906;2023-12-28T19:29:17;10.00;99.90
29817;DHT22;16805;52.956;5.906;2023-12-28T19:31:44;10.00;99.90
29817;DHT22;16805;52.956;5.906;2023-12-28T19:34:09;10.00;99.90
29817;DHT22;16805;52.956;5.906;2023-12-28T19:36:35;10.00;99.90
29817;DHT22;16805;52.956;5.906;2023-12-28T19:39:02;10.10;99.90
29817;DHT22;16805;52.956;5.906;2023-12-28T19:41:29;10.10;99.90
29817;DHT22;16805;52.956;5.906;2023-12-28T19:43:55;10.00;99.90
29817;DHT22;16805;52.956;5.906;2023-12-28T19:46:22;10.00;99.90
29817;DHT22;16805;52.956;5.906;2023-12-28T19:48:48;10.00;99.90
29817;DHT22;16805;52.956;5.906;2023-12-28T19:51:14;10.00;99.90
29817;DHT22;16805;52.956;5.906;2023-12-28T19:53:40;9.90;99.90
29817;DHT22;16805;52.956;5.906;2023-12-28T19:56:06;9.90;99.90
29817;DHT22;16805;52.956;5.906;2023-12-28T19:58:32;9.90;99.90
29817;DHT22;16805;52.956;5.906;2023-12-28T20:00:58;9.90;99.90
29817;DHT22;16805;52.956;5.906;2023-12-28T20:03:24;9.90;99.90
29817;DHT22;16805;52.956;5.906;2023-12-28T20:05:52;9.90;99.90
29817;DHT22;16805;52.956;5.906;2023-12-28T20:08:21;9.90;99.90
29817;DHT22;16805;52.956;5.906;2023-12-28T20:10:47;9.90;99.90
29817;DHT22;16805;52.956;5.906;2023-12-28T20:13:13;9.90;99.90
29817;DHT22;16805;52.956;5.906;2023-12-28T20:15:38;9.80;99.90
29817;DHT22;16805;52.956;5.906;2023-12-28T20:18:04;9.80;99.90
29817;DHT22;16805;52.956;5.906;2023-12-28T20:20:30;9.80;99.90
29817;DHT22;16805;52.956;5.906;2023-12-28T20:23:00;9.80;99.90
29817;DHT22;16805;52.956;5.906;2023-12-28T20:25:26;9.80;99.90
29817;DHT22;16805;52.956;5.906;2023-12-28T20:27:52;9.80;99.90
29817;DHT22;16805;52.956;5.906;2023-12-28T20:30:23;9.70;99.90
29817;DHT22;16805;52.956;5.906;2023-12-28T20:32:48;9.80;99.90
29817;DHT22;16805;52.956;5.906;2023-12-28T20:35:14;9.80;99.90
29817;DHT22;16805;52.956;5.906;2023-12-28T20:37:40;9.80;99.90
29817;DHT22;16805;52.956;5.906;2023-12-28T20:40:07;9.80;99.90
29817;DHT22;16805;52.956;5.906;2023-12-28T20:42:33;9.80;99.90
29817;DHT22;16805;52.956;5.906;2023-12-28T20:44:58;9.80;99.90
29817;DHT22;16805;52.956;5.906;2023-12-28T20:47:24;9.80;99.90
29817;DHT22;16805;52.956;5.906;2023-12-28T20:49:50;9.80;99.90
29817;DHT22;16805;52.956;5.906;2023-12-28T20:52:22;9.80;99.90
29817;DHT22;16805;52.956;5.906;2023-12-28T20:54:53;9.80;99.90
29817;DHT22;16805;52.956;5.906;2023-12-28T20:57:21;9.90;99.90
29817;DHT22;16805;52.956;5.906;2023-12-28T20:59:58;9.80;99.90
29817;DHT22;16805;52.956;5.906;2023-12-28T21:02:25;9.80;99.90
29817;DHT22;16805;52.956;5.906;2023-12-28T21:04:55;9.80;99.90
29817;DHT22;16805;52.956;5.906;2023-12-28T21:07:26;9.80;99.90
29817;DHT22;16805;52.956;5.906;2023-12-28T21:09:58;9.80;99.90
29817;DHT22;16805;52.956;5.906;2023-12-28T21:15:56;9.80;99.90
29817;DHT22;16805;52.956;5.906;2023-12-28T21:19:15;9.80;99.90
29817;DHT22;16805;52.956;5.906;2023-12-28T21:22:04;9.80;99.90
29817;DHT22;16805;52.956;5.906;2023-12-28T21:25:23;9.70;99.90
29817;DHT22;16805;52.956;5.906;2023-12-28T21:35:20;9.60;99.90
29817;DHT22;16805;52.956;5.906;2023-12-28T21:41:20;9.60;99.90
29817;DHT22;16805;52.956;5.906;2023-12-28T21:44:13;9.50;99.90
29817;DHT22;16805;52.956;5.906;2023-12-28T21:47:30;9.50;99.90
29817;DHT22;16805;52.956;5.906;2023-12-28T21:53:17;9.50;99.90
29817;DHT22;16805;52.956;5.906;2023-12-28T21:59:35;9.50;99.90
29817;DHT22;16805;52.956;5.906;2023-12-28T22:06:05;9.50;99.90
29817;DHT22;16805;52.956;5.906;2023-12-28T22:09:08;9.50;99.90
29817;DHT22;16805;52.956;5.906;2023-12-28T22:12:43;9.50;99.90
29817;DHT22;16805;52.956;5.906;2023-12-28T22:15:23;9.50;99.90
29817;DHT22;16805;52.956;5.906;2023-12-28T22:21:46;9.50;99.90
29817;DHT22;16805;52.956;5.906;2023-12-28T22:25:23;9.50;99.90
29817;DHT22;16805;52.956;5.906;2023-12-28T22:28:33;9.50;99.90
29817;DHT22;16805;52.956;5.906;2023-12-28T22:31:53;9.50;99.90
29817;DHT22;16805;52.956;5.906;2023-12-28T22:35:18;9.40;99.90
29817;DHT22;16805;52.956;5.906;2023-12-28T22:47:43;9.40;99.90
29817;DHT22;16805;52.956;5.906;2023-12-28T22:50:15;9.40;99.90
29817;DHT22;16805;52.956;5.906;2023-12-28T22:52:43;9.40;99.90
29817;DHT22;16805;52.956;5.906;2023-12-28T22:55:10;9.40;99.90
29817;DHT22;16805;52.956;5.906;2023-12-28T22:58:03;9.40;99.90
29817;DHT22;16805;52.956;5.906;2023-12-28T23:00:37;9.50;99.90
29817;DHT22;16805;52.956;5.906;2023-12-28T23:06:42;9.40;99.90
29817;DHT22;16805;52.956;5.906;2023-12-28T23:09:19;9.50;99.90
29817;DHT22;16805;52.956;5.906;2023-12-28T23:11:44;9.50;99.90
29817;DHT22;16805;52.956;5.906;2023-12-28T23:14:12;9.50;99.90
29817;DHT22;16805;52.956;5.906;2023-12-28T23:16:41;9.50;99.90
29817;DHT22;16805;52.956;5.906;2023-12-28T23:19:09;9.50;99.90
29817;DHT22;16805;52.956;5.906;2023-12-28T23:21:36;9.50;99.90
29817;DHT22;16805;52.956;5.906;2023-12-28T23:24:02;9.50;99.90
29817;DHT22;16805;52.956;5.906;2023-12-28T23:26:29;9.40;99.90
29817;DHT22;16805;52.956;5.906;2023-12-28T23:28:55;9.50;99.90
29817;DHT22;16805;52.956;5.906;2023-12-28T23:31:22;9.50;99.90
29817;DHT22;16805;52.956;5.906;2023-12-28T23:33:52;9.50;99.90
29817;DHT22;16805;52.956;5.906;2023-12-28T23:36:20;9.50;99.90
29817;DHT22;16805;52.956;5.906;2023-12-28T23:38:46;9.50;99.90
29817;DHT22;16805;52.956;5.906;2023-12-28T23:41:13;9.50;99.90
29817;DHT22;16805;52.956;5.906;2023-12-28T23:43:40;9.50;99.90
29817;DHT22;16805;52.956;5.906;2023-12-28T23:46:09;9.60;99.90
29817;DHT22;16805;52.956;5.906;2023-12-28T23:48:35;9.60;99.90
29817;DHT22;16805;52.956;5.906;2023-12-28T23:51:01;9.60;99.90
29817;DHT22;16805;52.956;5.906;2023-12-28T23:53:27;9.50;99.90
29817;DHT22;16805;52.956;5.906;2023-12-28T23:55:52;9.50;99.90
29817;DHT22;16805;52.956;5.906;2023-12-28T23:58:26;9.50;99.90
